createdAt,value
2023-03-16T00:00:32.346Z,3.35
2023-03-16T00:03:01.028Z,3.39
2023-03-16T00:05:32.818Z,3.29
2023-03-16T00:08:01.045Z,3.36
2023-03-16T00:10:29.159Z,3.44
2023-03-16T00:12:58.584Z,3.48
2023-03-16T00:15:26.601Z,3.47
2023-03-16T00:17:54.912Z,3.44
2023-03-16T00:20:23.078Z,3.40
2023-03-16T00:22:53.761Z,3.44
2023-03-16T00:25:21.793Z,3.52
2023-03-16T00:27:50.982Z,3.39
2023-03-16T00:30:20.409Z,3.51
2023-03-16T00:32:49.648Z,3.28
2023-03-16T00:35:19.317Z,3.51
2023-03-16T00:37:47.728Z,3.55
2023-03-16T00:40:18.070Z,3.58
2023-03-16T00:42:46.447Z,3.54
2023-03-16T00:45:14.685Z,3.57
2023-03-16T00:47:43.762Z,3.55
2023-03-16T00:50:20.915Z,3.54
2023-03-16T00:52:53.663Z,3.60
2023-03-16T00:55:23.380Z,3.61
2023-03-16T00:57:52.777Z,3.57
2023-03-16T01:00:22.118Z,3.56
2023-03-16T01:02:51.331Z,3.35
2023-03-16T01:05:20.394Z,3.46
2023-03-16T01:07:48.568Z,3.57
2023-03-16T01:10:17.539Z,3.54
2023-03-16T01:12:47.099Z,3.59
2023-03-16T01:15:15.678Z,3.57
2023-03-16T01:17:43.749Z,3.48
2023-03-16T01:20:14.528Z,3.52
2023-03-16T01:22:43.116Z,3.44
2023-03-16T01:25:12.370Z,3.50
2023-03-16T01:27:40.575Z,3.34
2023-03-16T01:30:14.326Z,3.31
2023-03-16T01:32:45.445Z,3.23
2023-03-16T01:35:21.828Z,3.32
2023-03-16T01:37:57.987Z,3.43
2023-03-16T01:40:26.351Z,3.46
2023-03-16T01:43:03.034Z,3.32
2023-03-16T01:46:03.807Z,3.28
2023-03-16T01:48:44.999Z,3.28
2023-03-16T01:51:21.277Z,3.07
2023-03-16T01:53:54.875Z,3.22
2023-03-16T01:56:27.434Z,3.09
2023-03-16T01:58:59.003Z,3.07
2023-03-16T02:01:28.828Z,3.17
2023-03-16T02:04:09.167Z,3.18
2023-03-16T02:06:38.253Z,3.23
2023-03-16T02:09:07.454Z,3.17
2023-03-16T02:11:39.812Z,3.22
2023-03-16T02:14:11.832Z,3.20
2023-03-16T02:16:41.196Z,3.18
2023-03-16T02:19:21.767Z,3.31
2023-03-16T02:21:56.768Z,3.29
2023-03-16T02:24:26.038Z,3.04
2023-03-16T02:26:59.492Z,3.15
2023-03-16T02:29:58.371Z,3.30
2023-03-16T02:32:29.586Z,3.27
2023-03-16T02:35:03.830Z,3.29
2023-03-16T02:37:34.150Z,3.19
2023-03-16T02:40:02.553Z,3.26
2023-03-16T02:42:31.706Z,3.27
2023-03-16T02:45:02.132Z,3.35
2023-03-16T02:47:36.896Z,3.51
2023-03-16T02:50:08.528Z,3.51
2023-03-16T02:52:37.620Z,3.47
2023-03-16T02:55:08.005Z,3.52
2023-03-16T02:57:36.788Z,3.52
2023-03-16T03:00:12.463Z,3.50
2023-03-16T03:02:40.835Z,3.52
2023-03-16T03:05:09.906Z,3.47
2023-03-16T03:07:38.883Z,3.64
2023-03-16T03:10:08.260Z,3.62
2023-03-16T03:12:36.530Z,3.71
2023-03-16T03:15:09.090Z,3.73
2023-03-16T03:17:37.500Z,3.73
2023-03-16T03:20:15.552Z,3.61
2023-03-16T03:22:44.903Z,3.72
2023-03-16T03:25:14.270Z,3.78
2023-03-16T03:27:43.860Z,3.79
2023-03-16T03:30:16.497Z,3.75
2023-03-16T03:32:46.212Z,3.65
2023-03-16T03:35:21.102Z,3.62
2023-03-16T03:37:50.977Z,3.77
2023-03-16T03:40:21.062Z,3.59
2023-03-16T03:42:51.460Z,3.70
2023-03-16T03:45:22.878Z,3.75
2023-03-16T03:47:51.057Z,3.82
2023-03-16T03:50:19.697Z,3.68
2023-03-16T03:52:48.059Z,3.69
2023-03-16T03:55:20.653Z,3.89
2023-03-16T03:57:50.097Z,3.81
2023-03-16T04:00:21.018Z,3.72
2023-03-16T04:02:51.663Z,3.81
2023-03-16T04:05:22.073Z,3.73
2023-03-16T04:07:55.091Z,3.64
2023-03-16T04:10:26.476Z,3.78
2023-03-16T04:13:04.151Z,3.98
2023-03-16T04:15:33.224Z,3.77
2023-03-16T04:18:11.093Z,3.94
2023-03-16T04:20:39.456Z,3.82
2023-03-16T04:23:08.255Z,4.01
2023-03-16T04:25:38.554Z,3.93
2023-03-16T04:28:06.998Z,3.86
2023-03-16T04:30:43.742Z,3.86
2023-03-16T04:33:18.109Z,3.87
2023-03-16T04:35:47.269Z,3.77
2023-03-16T04:38:16.517Z,3.88
2023-03-16T04:40:45.264Z,4.02
2023-03-16T04:43:15.980Z,4.03
2023-03-16T04:45:45.198Z,3.99
2023-03-16T04:48:16.229Z,3.94
2023-03-16T04:50:44.500Z,3.95
2023-03-16T04:53:13.700Z,3.80
2023-03-16T04:55:43.124Z,3.95
2023-03-16T04:58:11.499Z,3.92
2023-03-16T05:00:39.440Z,3.88
2023-03-16T05:03:21.668Z,3.86
2023-03-16T05:05:51.601Z,3.90
2023-03-16T05:08:26.913Z,3.88
2023-03-16T05:10:58.251Z,4.03
2023-03-16T05:13:26.839Z,3.98
2023-03-16T05:15:56.406Z,3.90
2023-03-16T05:18:29.281Z,3.92
2023-03-16T05:20:57.538Z,3.78
2023-03-16T05:23:27.166Z,3.95
2023-03-16T05:25:59.821Z,3.91
2023-03-16T05:28:28.918Z,3.83
2023-03-16T05:30:58.400Z,4.05
2023-03-16T05:33:39.082Z,3.96
2023-03-16T05:36:22.906Z,3.98
2023-03-16T05:38:54.134Z,3.98
2023-03-16T05:41:42.690Z,4.04
2023-03-16T05:44:46.237Z,4.04
2023-03-16T05:47:14.437Z,3.94
2023-03-16T05:49:46.071Z,3.87
2023-03-16T05:52:20.263Z,4.06
2023-03-16T05:55:12.314Z,4.08
2023-03-16T05:57:41.774Z,4.04
2023-03-16T06:00:14.736Z,4.05
2023-03-16T06:02:43.677Z,4.05
2023-03-16T06:05:16.195Z,3.89
2023-03-16T06:07:45.641Z,3.88
2023-03-16T06:10:18.538Z,3.68
2023-03-16T06:12:47.616Z,3.83
2023-03-16T06:15:17.750Z,3.83
2023-03-16T06:17:48.847Z,3.78
2023-03-16T06:20:20.491Z,3.75
2023-03-16T06:22:52.162Z,3.78
2023-03-16T06:25:21.884Z,3.81
2023-03-16T06:28:04.412Z,3.83
2023-03-16T06:30:34.645Z,3.77
2023-03-16T06:33:05.552Z,3.96
2023-03-16T06:35:36.648Z,3.88
2023-03-16T06:38:04.902Z,4.02
2023-03-16T06:40:32.977Z,4.08
2023-03-16T06:43:02.580Z,4.19
2023-03-16T06:45:30.841Z,4.25
2023-03-16T06:47:59.067Z,4.21
2023-03-16T06:50:27.541Z,4.11
2023-03-16T06:52:57.314Z,4.21
2023-03-16T06:55:25.559Z,4.31
2023-03-16T06:57:55.018Z,4.37
2023-03-16T07:00:26.776Z,4.37
2023-03-16T07:02:55.101Z,4.41
2023-03-16T07:05:23.086Z,4.51
2023-03-16T07:07:54.442Z,4.63
2023-03-16T07:10:26.512Z,4.69
2023-03-16T07:12:57.435Z,4.64
2023-03-16T07:15:26.637Z,4.74
2023-03-16T07:17:55.307Z,4.75
2023-03-16T07:20:24.289Z,4.65
2023-03-16T07:22:52.572Z,4.67
2023-03-16T07:25:23.097Z,4.60
2023-03-16T07:27:51.205Z,4.82
2023-03-16T07:30:21.571Z,4.87
2023-03-16T07:32:50.660Z,4.79
2023-03-16T07:35:21.869Z,4.76
2023-03-16T07:37:51.713Z,4.88
2023-03-16T07:40:21.162Z,4.95
2023-03-16T07:42:54.797Z,4.93
2023-03-16T07:45:24.046Z,4.97
2023-03-16T07:47:53.162Z,5.19
2023-03-16T07:50:22.413Z,5.14
2023-03-16T07:52:57.214Z,5.24
2023-03-16T07:55:39.957Z,5.12
2023-03-16T07:58:10.507Z,5.12
2023-03-16T08:00:44.749Z,5.03
2023-03-16T08:03:19.103Z,5.22
2023-03-16T08:05:52.093Z,4.96
2023-03-16T08:08:23.274Z,4.96
2023-03-16T08:10:56.533Z,5.12
2023-03-16T08:13:27.450Z,5.09
2023-03-16T08:15:59.288Z,5.03
2023-03-16T08:18:27.938Z,4.91
2023-03-16T08:20:56.592Z,4.98
2023-03-16T08:23:36.588Z,4.82
2023-03-16T08:26:08.800Z,4.68
2023-03-16T08:28:39.224Z,4.92
2023-03-16T08:31:10.789Z,4.91
2023-03-16T08:33:39.859Z,5.01
2023-03-16T08:36:08.853Z,5.03
2023-03-16T08:38:36.958Z,4.90
2023-03-16T08:41:19.239Z,4.95
2023-03-16T08:43:54.602Z,5.06
2023-03-16T08:46:27.394Z,5.00
2023-03-16T08:48:56.995Z,4.90
2023-03-16T08:51:25.279Z,4.76
2023-03-16T08:53:55.343Z,4.73
2023-03-16T08:56:24.461Z,4.68
2023-03-16T08:58:58.604Z,4.78
2023-03-16T09:01:27.846Z,4.78
2023-03-16T09:03:57.075Z,4.76
2023-03-16T09:06:30.626Z,4.72
2023-03-16T09:08:59.118Z,4.71
2023-03-16T09:11:30.705Z,4.72
2023-03-16T09:14:00.544Z,4.83
2023-03-16T09:16:30.978Z,4.67
2023-03-16T09:18:59.135Z,4.63
2023-03-16T09:21:27.345Z,4.78
2023-03-16T09:23:57.095Z,4.73
2023-03-16T09:26:25.774Z,4.87
2023-03-16T09:28:54.642Z,4.82
2023-03-16T09:31:32.775Z,4.77
2023-03-16T09:34:03.972Z,4.95
2023-03-16T09:36:40.971Z,5.06
2023-03-16T09:39:14.240Z,5.38
2023-03-16T09:41:54.319Z,5.31
2023-03-16T09:44:43.738Z,5.41
2023-03-16T09:47:19.024Z,5.38
2023-03-16T09:49:53.127Z,5.34
2023-03-16T09:52:39.745Z,5.60
2023-03-16T09:55:43.138Z,5.56
2023-03-16T09:58:25.297Z,5.55
2023-03-16T10:01:28.587Z,5.59
2023-03-16T10:04:31.760Z,5.49
2023-03-16T10:07:32.582Z,5.51
2023-03-16T10:10:19.549Z,5.50
2023-03-16T10:12:55.179Z,5.39
2023-03-16T10:15:28.494Z,5.25
2023-03-16T10:18:02.416Z,5.27
2023-03-16T10:20:36.748Z,5.41
2023-03-16T10:23:21.956Z,5.50
2023-03-16T10:25:56.271Z,5.42
2023-03-16T10:28:32.302Z,5.38
2023-03-16T10:31:05.940Z,5.57
2023-03-16T10:33:39.744Z,5.82
2023-03-16T10:36:31.244Z,5.74
2023-03-16T10:39:01.876Z,5.77
2023-03-16T10:41:32.219Z,5.46
2023-03-16T10:44:07.802Z,5.68
2023-03-16T10:46:43.589Z,5.50
2023-03-16T10:49:33.881Z,5.70
2023-03-16T10:52:16.634Z,5.81
2023-03-16T10:54:54.325Z,5.73
2023-03-16T10:57:26.316Z,5.79
2023-03-16T10:59:59.687Z,6.01
2023-03-16T11:02:34.564Z,5.90
2023-03-16T11:05:16.119Z,6.01
2023-03-16T11:08:00.316Z,6.11
2023-03-16T11:10:36.151Z,6.18
2023-03-16T11:13:14.803Z,6.34
2023-03-16T11:15:51.564Z,6.48
2023-03-16T11:18:30.154Z,6.48
2023-03-16T11:21:03.086Z,6.43
2023-03-16T11:23:36.880Z,6.51
2023-03-16T11:26:14.193Z,6.52
2023-03-16T11:28:48.760Z,6.64
2023-03-16T11:31:24.972Z,6.66
2023-03-16T11:33:57.627Z,6.56
2023-03-16T11:36:39.702Z,6.84
2023-03-16T11:39:28.220Z,6.81
2023-03-16T11:42:13.477Z,6.82
2023-03-16T11:44:51.630Z,7.22
2023-03-16T11:47:50.069Z,7.45
2023-03-16T11:50:26.635Z,7.65
2023-03-16T11:53:07.300Z,7.61
2023-03-16T11:55:43.690Z,7.63
2023-03-16T11:58:21.745Z,7.80
2023-03-16T12:01:01.831Z,7.74
2023-03-16T12:04:29.584Z,8.02
2023-03-16T12:07:15.957Z,8.20
2023-03-16T12:10:23.845Z,8.76
2023-03-16T12:13:22.302Z,8.79
2023-03-16T12:15:57.270Z,9.26
2023-03-16T12:18:31.837Z,9.11
2023-03-16T12:21:08.550Z,9.36
2023-03-16T12:23:42.224Z,9.42
2023-03-16T12:26:12.523Z,8.94
2023-03-16T12:28:44.509Z,9.13
2023-03-16T12:31:18.253Z,9.04
2023-03-16T12:34:05.296Z,9.18
2023-03-16T12:36:50.811Z,9.13
2023-03-16T12:39:31.069Z,9.33
2023-03-16T12:42:10.902Z,9.54
2023-03-16T12:44:49.259Z,9.39
2023-03-16T12:47:27.326Z,9.37
2023-03-16T12:49:56.898Z,9.12
2023-03-16T12:52:27.448Z,9.18
2023-03-16T12:55:14.053Z,9.00
2023-03-16T12:57:44.072Z,9.03
2023-03-16T13:00:19.925Z,9.11
2023-03-16T13:02:56.564Z,9.07
2023-03-16T13:05:32.514Z,9.11
2023-03-16T13:08:10.817Z,8.84
2023-03-16T13:10:39.871Z,9.11
2023-03-16T13:16:11.530Z,9.13
2023-03-16T13:18:45.584Z,9.18
2023-03-16T13:21:23.879Z,9.28
2023-03-16T13:24:00.196Z,9.45
2023-03-16T13:26:42.442Z,9.71
2023-03-16T13:29:27.260Z,10.00
2023-03-16T13:31:59.583Z,9.81
2023-03-16T13:34:31.221Z,10.18
2023-03-16T13:37:01.800Z,10.83
2023-03-16T13:39:33.129Z,11.34
2023-03-16T13:42:05.744Z,10.96
2023-03-16T13:44:36.761Z,11.25
2023-03-16T13:47:07.795Z,11.06
2023-03-16T13:49:56.951Z,10.63
2023-03-16T13:52:33.127Z,10.70
2023-03-16T13:55:07.789Z,11.36
2023-03-16T13:57:59.594Z,11.55
2023-03-16T14:00:39.338Z,11.97
2023-03-16T14:03:53.274Z,12.12
2023-03-16T14:06:42.359Z,11.22
2023-03-16T14:09:21.840Z,10.82
2023-03-16T14:12:18.414Z,11.16
2023-03-16T14:15:02.474Z,10.87
2023-03-16T14:18:02.612Z,11.08
2023-03-16T14:20:41.496Z,10.94
2023-03-16T14:23:31.083Z,11.06
2023-03-16T14:26:01.585Z,10.95
2023-03-16T14:28:37.000Z,10.69
2023-03-16T14:34:34.558Z,10.59
2023-03-16T14:37:25.142Z,10.39
2023-03-16T14:40:07.838Z,10.55
2023-03-16T14:42:37.806Z,10.73
2023-03-16T14:45:13.166Z,10.51
2023-03-16T14:47:44.490Z,10.53
2023-03-16T14:50:20.931Z,10.46
2023-03-16T14:52:51.584Z,10.46
2023-03-16T14:55:23.321Z,10.53
2023-03-16T14:57:53.718Z,10.51
2023-03-16T15:00:25.788Z,10.63
2023-03-16T15:03:05.919Z,10.64
2023-03-16T15:05:40.683Z,10.68
2023-03-16T15:11:22.446Z,10.34
2023-03-16T15:14:04.883Z,10.38
2023-03-16T15:16:34.253Z,10.50
2023-03-16T15:19:02.387Z,10.52
2023-03-16T15:21:33.522Z,10.53
2023-03-16T15:24:03.527Z,10.69
2023-03-16T15:26:33.104Z,10.67
2023-03-16T15:29:02.378Z,10.81
2023-03-16T15:31:36.923Z,10.52
2023-03-16T15:34:09.585Z,10.55
2023-03-16T15:36:39.815Z,10.61
2023-03-16T15:39:08.515Z,10.58
2023-03-16T15:41:47.598Z,10.60
2023-03-16T15:44:19.611Z,10.48
2023-03-16T15:46:51.465Z,10.57
2023-03-16T15:49:25.878Z,10.47
2023-03-16T15:51:55.193Z,10.56
2023-03-16T15:54:23.953Z,10.47
2023-03-16T15:56:54.896Z,10.49
2023-03-16T15:59:24.721Z,10.30
2023-03-16T16:01:53.058Z,10.45
2023-03-16T16:04:24.503Z,10.47
2023-03-16T16:07:02.092Z,10.35
2023-03-16T16:09:37.794Z,10.59
2023-03-16T16:12:12.392Z,10.50
2023-03-16T16:14:40.639Z,10.34
2023-03-16T16:17:43.852Z,10.32
2023-03-16T16:20:20.522Z,10.36
2023-03-16T16:22:51.356Z,10.40
2023-03-16T16:25:26.433Z,10.38
2023-03-16T16:27:57.139Z,10.30
2023-03-16T16:30:29.906Z,10.21
2023-03-16T16:32:59.074Z,10.12
2023-03-16T16:35:29.479Z,10.01
2023-03-16T16:37:57.566Z,9.80
2023-03-16T16:40:36.764Z,9.83
2023-03-16T16:43:07.748Z,9.67
2023-03-16T16:45:36.057Z,9.59
2023-03-16T16:48:19.685Z,9.30
2023-03-16T16:50:52.723Z,9.21
2023-03-16T16:53:21.853Z,9.10
2023-03-16T16:55:53.483Z,8.99
2023-03-16T16:58:24.855Z,8.96
2023-03-16T17:01:03.858Z,8.93
2023-03-16T17:03:36.041Z,8.84
2023-03-16T17:06:05.482Z,8.70
2023-03-16T17:08:34.103Z,8.44
2023-03-16T17:11:02.294Z,8.25
2023-03-16T17:13:37.606Z,8.13
2023-03-16T17:16:07.258Z,8.11
2023-03-16T17:18:35.680Z,8.07
2023-03-16T17:21:05.049Z,7.96
2023-03-16T17:23:35.008Z,7.76
2023-03-16T17:26:10.888Z,7.70
2023-03-16T17:28:45.543Z,7.66
2023-03-16T17:31:14.725Z,7.71
2023-03-16T17:33:42.827Z,7.73
2023-03-16T17:36:14.857Z,7.57
2023-03-16T17:38:43.163Z,7.53
2023-03-16T17:41:24.677Z,7.56
2023-03-16T17:43:55.937Z,7.66
2023-03-16T17:46:26.379Z,7.49
2023-03-16T17:48:56.268Z,7.55
2023-03-16T17:51:26.106Z,7.36
2023-03-16T17:54:02.929Z,7.41
2023-03-16T17:56:42.373Z,7.52
2023-03-16T17:59:18.798Z,7.43
2023-03-16T18:01:48.895Z,7.54
2023-03-16T18:04:28.926Z,7.64
2023-03-16T18:06:57.090Z,7.42
2023-03-16T18:09:25.372Z,7.64
2023-03-16T18:12:06.588Z,7.50
2023-03-16T18:14:44.485Z,7.49
2023-03-16T18:17:24.929Z,7.68
2023-03-16T18:20:05.821Z,7.57
2023-03-16T18:22:46.255Z,7.64
2023-03-16T18:25:34.339Z,7.70
2023-03-16T18:28:39.543Z,7.69
2023-03-16T18:31:21.490Z,7.67
2023-03-16T18:33:53.893Z,7.67
2023-03-16T18:36:32.156Z,7.68
2023-03-16T18:39:06.179Z,7.62
2023-03-16T18:41:36.735Z,7.63
2023-03-16T18:44:16.794Z,7.54
2023-03-16T18:46:48.028Z,7.56
2023-03-16T18:49:20.009Z,7.72
2023-03-16T18:51:51.467Z,7.72
2023-03-16T18:54:22.084Z,7.68
2023-03-16T18:56:50.120Z,7.62
2023-03-16T18:59:19.239Z,7.69
2023-03-16T19:01:49.055Z,7.54
2023-03-16T19:04:22.630Z,7.44
2023-03-16T19:06:53.685Z,7.53
2023-03-16T19:09:23.519Z,7.42
2023-03-16T19:11:52.865Z,7.44
2023-03-16T19:14:24.177Z,7.62
2023-03-16T19:16:54.440Z,7.68
2023-03-16T19:19:24.227Z,7.63
2023-03-16T19:21:54.941Z,7.63
2023-03-16T19:24:26.683Z,7.67
2023-03-16T19:26:56.598Z,7.57
2023-03-16T19:29:32.743Z,7.44
2023-03-16T19:32:02.755Z,7.59
2023-03-16T19:34:30.863Z,7.73
2023-03-16T19:36:58.849Z,7.87
2023-03-16T19:39:27.886Z,7.88
2023-03-16T19:41:58.227Z,8.02
2023-03-16T19:44:30.822Z,7.90
2023-03-16T19:47:00.642Z,7.97
2023-03-16T19:49:29.974Z,8.00
2023-03-16T19:51:59.752Z,7.84
2023-03-16T19:54:32.532Z,7.87
2023-03-16T19:57:04.964Z,7.82
2023-03-16T19:59:36.177Z,8.00
2023-03-16T20:02:16.706Z,8.04
2023-03-16T20:04:46.520Z,7.98
2023-03-16T20:07:17.718Z,8.12
2023-03-16T20:09:46.689Z,8.04
2023-03-16T20:12:22.525Z,7.96
2023-03-16T20:14:52.168Z,7.87
2023-03-16T20:17:26.117Z,7.83
2023-03-16T20:20:01.325Z,7.96
2023-03-16T20:22:32.777Z,8.10
2023-03-16T20:25:05.337Z,8.13
2023-03-16T20:27:36.564Z,8.06
2023-03-16T20:30:16.655Z,8.14
2023-03-16T20:32:45.955Z,8.16
2023-03-16T20:35:25.814Z,8.10
2023-03-16T20:37:56.192Z,7.98
2023-03-16T20:40:36.895Z,8.05
2023-03-16T20:43:05.053Z,8.02
2023-03-16T20:45:33.548Z,8.08
2023-03-16T20:48:15.907Z,8.07
2023-03-16T20:50:47.898Z,8.01
2023-03-16T20:53:17.346Z,7.97
2023-03-16T20:55:46.300Z,7.98
2023-03-16T20:58:21.005Z,7.84
2023-03-16T21:00:53.092Z,7.78
2023-03-16T21:03:23.292Z,7.86
2023-03-16T21:05:54.339Z,7.90
2023-03-16T21:08:23.016Z,8.01
2023-03-16T21:11:02.140Z,8.04
2023-03-16T21:13:35.916Z,7.83
2023-03-16T21:16:06.436Z,7.96
2023-03-16T21:18:34.983Z,8.17
2023-03-16T21:21:04.903Z,8.26
2023-03-16T21:23:32.741Z,8.38
2023-03-16T21:26:04.023Z,8.23
2023-03-16T21:28:35.496Z,8.34
2023-03-16T21:31:03.906Z,8.39
2023-03-16T21:33:34.966Z,8.42
2023-03-16T21:36:08.119Z,8.28
2023-03-16T21:38:36.658Z,8.32
2023-03-16T21:41:04.927Z,8.33
2023-03-16T21:43:33.046Z,8.50
2023-03-16T21:46:01.353Z,8.41
2023-03-16T21:48:34.484Z,8.44
2023-03-16T21:51:02.430Z,8.53
2023-03-16T21:53:33.409Z,8.40
2023-03-16T21:56:01.635Z,8.31
2023-03-16T21:58:29.745Z,8.15
2023-03-16T22:00:58.509Z,8.25
2023-03-16T22:03:37.844Z,8.23
2023-03-16T22:06:18.780Z,8.14
2023-03-16T22:08:51.280Z,8.09
2023-03-16T22:11:22.497Z,8.04
2023-03-16T22:13:52.235Z,8.05
2023-03-16T22:16:23.497Z,7.97
2023-03-16T22:18:53.512Z,8.08
2023-03-16T22:21:29.176Z,8.07
2023-03-16T22:24:02.247Z,7.96
2023-03-16T22:26:44.450Z,7.79
2023-03-16T22:29:28.680Z,7.76
2023-03-16T22:32:04.139Z,7.59
2023-03-16T22:34:41.245Z,7.51
2023-03-16T22:37:31.635Z,7.47
2023-03-16T22:40:39.373Z,7.53
2023-03-16T22:43:13.747Z,7.62
2023-03-16T22:45:43.286Z,7.58
2023-03-16T22:48:19.445Z,7.65
2023-03-16T22:50:49.133Z,7.57
2023-03-16T22:53:21.912Z,7.52
2023-03-16T22:55:52.819Z,7.32
2023-03-16T22:58:28.718Z,7.45
2023-03-16T23:01:03.083Z,7.52
2023-03-16T23:03:31.679Z,7.51
2023-03-16T23:05:59.773Z,7.46
2023-03-16T23:08:33.598Z,7.25
2023-03-16T23:11:01.873Z,7.41
2023-03-16T23:13:32.496Z,7.50
2023-03-16T23:16:00.577Z,7.43
2023-03-16T23:18:28.595Z,7.45
2023-03-16T23:20:57.754Z,7.35
2023-03-16T23:23:26.078Z,7.41
2023-03-16T23:25:54.135Z,7.41
2023-03-16T23:28:25.356Z,7.45
2023-03-16T23:30:54.956Z,7.45
2023-03-16T23:33:23.113Z,7.49
2023-03-16T23:35:51.265Z,7.40
2023-03-16T23:38:19.267Z,7.37
2023-03-16T23:40:49.350Z,7.46
2023-03-16T23:43:17.294Z,7.45
2023-03-16T23:45:47.741Z,7.44
2023-03-16T23:48:20.220Z,7.51
2023-03-16T23:50:53.248Z,7.48
2023-03-16T23:53:21.505Z,7.50
2023-03-16T23:55:51.103Z,7.57
2023-03-16T23:58:19.165Z,7.61
